Time;durP1;ratioP1;P1;durP2;ratioP2;P2;SDS_P1;SDS_P2;PMS_P1;PMS_P2;Temp;Humidity;BMP_temperature;BMP_pressure;BME280_temperature;BME280_humidity;BME280_pressure;Samples;Min_cycle;Max_cycle;Signal;HPM_P1;HPM_P2
2023/10/22 00:00:00;;;;;;;2.67;0.80;;;;;;;11.58;100.00;99639.44;6214923;23;20055;-81
2023/10/22 00:02:25;;;;;;;5.80;0.80;;;;;;;11.67;100.00;99650.78;6214902;23;20004;-86
2023/10/22 00:04:50;;;;;;;2.83;1.00;;;;;;;11.61;100.00;99640.97;6214983;23;20059;-87
2023/10/22 00:07:16;;;;;;;2.90;1.02;;;;;;;11.63;100.00;99650.22;6215021;23;20007;-85
2023/10/22 00:09:41;;;;;;;2.95;1.20;;;;;;;11.80;100.00;99666.06;6214881;23;19997;-79
2023/10/22 00:12:07;;;;;;;3.42;1.10;;;;;;;11.83;100.00;99676.19;6214947;23;20008;-81
2023/10/22 00:14:32;;;;;;;3.10;0.88;;;;;;;11.71;100.00;99667.69;6215024;23;20411;-80
2023/10/22 00:16:58;;;;;;;3.38;1.00;;;;;;;11.85;100.00;99679.44;6215101;23;20009;-87
2023/10/22 00:19:23;;;;;;;5.47;1.00;;;;;;;11.86;100.00;99687.06;6214752;23;20374;-88
2023/10/22 00:21:48;;;;;;;3.83;1.05;;;;;;;11.87;100.00;99690.47;6214885;23;20423;-79
2023/10/22 00:24:14;;;;;;;4.40;0.95;;;;;;;11.88;100.00;99689.50;6215079;23;20019;-87
2023/10/22 00:26:40;;;;;;;6.72;1.10;;;;;;;11.88;100.00;99690.34;6214621;23;20008;-89
2023/10/22 00:29:06;;;;;;;2.47;1.10;;;;;;;11.77;100.00;99670.53;6216537;23;20068;-81
2023/10/22 00:31:31;;;;;;;3.83;1.10;;;;;;;11.91;100.00;99703.03;6215151;23;20427;-87
2023/10/22 00:33:56;;;;;;;3.47;0.95;;;;;;;11.94;100.00;99707.09;6216760;23;20099;-87
2023/10/22 00:36:24;;;;;;;4.75;1.10;;;;;;;11.95;100.00;99712.13;6217013;23;20327;-87
2023/10/22 00:38:52;;;;;;;3.55;0.80;;;;;;;11.93;100.00;99708.88;6216972;23;20070;-82
2023/10/22 00:41:17;;;;;;;4.07;1.08;;;;;;;11.98;100.00;99714.44;6217022;23;20015;-81
2023/10/22 00:43:42;;;;;;;2.97;1.00;;;;;;;11.87;100.00;99703.41;6216666;23;20001;-77
2023/10/22 00:46:18;;;;;;;2.65;1.05;;;;;;;11.88;100.00;99692.91;6216804;23;20004;-80
2023/10/22 00:48:44;;;;;;;3.05;0.95;;;;;;;12.03;100.00;99719.25;6216577;23;20028;-89
2023/10/22 00:51:09;;;;;;;3.22;1.00;;;;;;;11.94;100.00;99713.09;6216580;23;20467;-83
2023/10/22 00:53:34;;;;;;;4.38;1.40;;;;;;;12.02;100.00;99727.97;6216406;23;20033;-86
2023/10/22 00:56:03;;;;;;;5.15;1.20;;;;;;;12.09;100.00;99742.00;6216243;23;20008;-82
2023/10/22 00:58:30;;;;;;;6.70;1.30;;;;;;;12.10;100.00;99733.31;6216556;23;20087;-82
2023/10/22 01:00:55;;;;;;;2.38;0.90;;;;;;;12.13;100.00;99737.38;6216892;23;20000;-84
2023/10/22 01:03:22;;;;;;;3.28;1.08;;;;;;;12.04;100.00;99729.47;6216536;23;20023;-87
2023/10/22 01:05:47;;;;;;;3.00;0.90;;;;;;;12.15;100.00;99744.06;6216785;23;20028;-89
2023/10/22 01:08:13;;;;;;;1.95;0.85;;;;;;;12.14;100.00;99742.41;6216371;23;20027;-87
2023/10/22 01:10:38;;;;;;;3.38;0.90;;;;;;;12.05;100.00;99735.44;6216249;23;20005;-87
2023/10/22 01:13:04;;;;;;;3.83;1.10;;;;;;;11.98;100.00;99711.88;6216446;23;20071;-86
2023/10/22 01:15:29;;;;;;;4.38;1.23;;;;;;;12.12;100.00;99744.34;6218708;23;20083;-80
2023/10/22 01:17:55;;;;;;;3.97;0.95;;;;;;;12.15;100.00;99751.00;6222394;23;20062;-86
2023/10/22 01:20:21;;;;;;;3.28;1.10;;;;;;;12.14;100.00;99757.13;6218182;23;20059;-88
2023/10/22 01:22:46;;;;;;;3.92;1.23;;;;;;;12.13;100.00;99758.09;6217185;23;20004;-81
2023/10/22 01:25:12;;;;;;;2.03;1.00;;;;;;;12.05;100.00;99756.97;6213351;23;20083;-83
2023/10/22 01:27:37;;;;;;;4.60;1.08;;;;;;;11.96;100.00;99773.28;6215953;23;20043;-88
2023/10/22 01:30:03;;;;;;;4.65;1.02;;;;;;;11.80;100.00;99754.00;6216677;23;20001;-87
2023/10/22 01:32:33;;;;;;;3.15;1.00;;;;;;;11.64;100.00;99741.56;6216658;23;19996;-79
2023/10/22 01:34:59;;;;;;;3.58;1.40;;;;;;;11.73;100.00;99764.88;6216405;23;20013;-83
2023/10/22 01:37:24;;;;;;;4.80;1.80;;;;;;;11.83;100.00;99784.81;6215929;23;20090;-80
2023/10/22 01:39:51;;;;;;;4.00;1.15;;;;;;;11.81;100.00;99794.47;6215343;23;20009;-88
2023/10/22 01:42:16;;;;;;;8.10;1.45;;;;;;;11.69;100.00;99779.00;6216051;23;20034;-84
2023/10/22 01:44:42;;;;;;;4.15;1.40;;;;;;;11.76;100.00;99805.97;6216248;23;20000;-81
2023/10/22 01:47:07;;;;;;;2.63;1.20;;;;;;;11.46;100.00;99760.25;6216255;23;20008;-83
2023/10/22 01:49:32;;;;;;;6.03;1.52;;;;;;;11.66;100.00;99804.31;6216051;23;20001;-88
2023/10/22 01:51:58;;;;;;;3.30;1.20;;;;;;;11.67;100.00;99809.34;6216517;23;20008;-86
2023/10/22 01:54:23;;;;;;;3.08;1.08;;;;;;;11.65;100.00;99815.59;6215727;23;20047;-81
2023/10/22 01:56:49;;;;;;;5.20;1.55;;;;;;;11.52;100.00;99794.31;6216350;23;20001;-85
2023/10/22 01:59:14;;;;;;;4.85;1.80;;;;;;;11.60;100.00;99818.56;6216245;23;20008;-83
2023/10/22 02:01:40;;;;;;;4.97;1.52;;;;;;;11.32;100.00;99788.19;6215961;23;20000;-87
2023/10/22 02:04:06;;;;;;;5.53;1.58;;;;;;;11.49;100.00;99836.72;6215837;23;20000;-83
2023/10/22 02:06:32;;;;;;;4.43;1.30;;;;;;;11.42;100.00;99836.44;6215552;23;20082;-88
2023/10/22 02:08:57;;;;;;;5.65;2.10;;;;;;;11.36;100.00;99839.50;6215815;23;20008;-88
2023/10/22 02:11:23;;;;;;;6.30;1.63;;;;;;;11.30;100.00;99842.56;6215707;23;20001;-79
2023/10/22 02:13:48;;;;;;;6.80;1.63;;;;;;;11.24;100.00;99845.69;6215521;23;20005;-83
2023/10/22 02:16:13;;;;;;;7.45;2.08;;;;;;;11.20;100.00;99846.84;6215658;23;20001;-89
2023/10/22 02:18:39;;;;;;;5.35;2.00;;;;;;;11.16;100.00;99856.63;6215651;23;20414;-89
2023/10/22 02:21:04;;;;;;;4.90;2.00;;;;;;;11.13;100.00;99858.66;6215313;23;20032;-89
2023/10/22 02:23:30;;;;;;;7.93;2.20;;;;;;;10.98;100.00;99839.19;6215862;23;20076;-79
2023/10/22 02:25:55;;;;;;;8.18;2.33;;;;;;;10.99;100.00;99853.75;6215850;23;20001;-78
2023/10/22 02:28:21;;;;;;;3.90;1.70;;;;;;;11.05;100.00;99874.75;6215430;23;20008;-89
2023/10/22 02:30:50;;;;;;;6.00;2.35;;;;;;;11.08;100.00;99882.25;6215514;23;20004;-88
2023/10/22 02:33:16;;;;;;;4.45;1.90;;;;;;;10.98;100.00;99868.44;6215496;23;20088;-82
2023/10/22 02:35:43;;;;;;;6.85;1.80;;;;;;;11.07;100.00;99890.13;6215194;23;20007;-86
2023/10/22 02:38:14;;;;;;;5.82;2.20;;;;;;;11.06;100.00;99886.72;6215398;23;20083;-87
2023/10/22 02:40:40;;;;;;;7.13;2.13;;;;;;;11.08;100.00;99897.75;6215700;23;20369;-88
2023/10/22 02:43:05;;;;;;;6.20;2.03;;;;;;;11.09;100.00;99907.16;6215353;23;20000;-79
2023/10/22 02:45:31;;;;;;;7.35;2.10;;;;;;;11.09;100.00;99906.34;6215433;23;20005;-79
2023/10/22 02:48:00;;;;;;;5.07;1.85;;;;;;;10.90;100.00;99881.13;6215354;23;20087;-87
2023/10/22 02:50:26;;;;;;;4.78;2.22;;;;;;;10.78;100.00;99870.03;6214735;23;20005;-81
2023/10/22 02:52:52;;;;;;;5.13;1.85;;;;;;;10.94;100.00;99892.88;6215266;23;20010;-87
2023/10/22 02:55:18;;;;;;;5.53;2.15;;;;;;;11.09;100.00;99920.06;6215136;23;20005;-77
2023/10/22 02:57:44;;;;;;;9.25;2.45;;;;;;;11.05;100.00;99926.44;6215172;23;20058;-79
2023/10/22 03:00:10;;;;;;;5.28;2.13;;;;;;;10.96;100.00;99910.84;6215054;23;20430;-79
2023/10/22 03:02:40;;;;;;;4.32;2.00;;;;;;;10.95;100.00;99925.53;6214618;23;20005;-83
2023/10/22 03:05:06;;;;;;;7.28;2.20;;;;;;;10.94;100.00;99929.03;6215531;23;20005;-82
2023/10/22 03:07:32;;;;;;;4.25;2.15;;;;;;;11.00;100.00;99940.66;6214787;23;20019;-80
2023/10/22 03:09:57;;;;;;;6.05;2.17;;;;;;;10.90;100.00;99928.44;6215271;23;20036;-83
2023/10/22 03:12:23;;;;;;;4.45;2.20;;;;;;;10.95;100.00;99933.28;6215261;23;20067;-77
2023/10/22 03:14:52;;;;;;;4.65;2.22;;;;;;;11.09;100.00;99964.00;6215119;23;20001;-77
2023/10/22 03:17:18;;;;;;;4.82;2.17;;;;;;;11.03;100.00;99951.56;6214866;23;20016;-78
2023/10/22 03:19:43;;;;;;;6.53;2.45;;;;;;;11.00;100.00;99945.81;6215147;23;20012;-81
2023/10/22 03:22:09;;;;;;;7.47;2.40;;;;;;;11.10;100.00;99963.03;6214627;23;20005;-80
2023/10/22 03:24:34;;;;;;;5.18;2.20;;;;;;;11.11;100.00;99975.06;6215173;23;20055;-82
2023/10/22 03:27:00;;;;;;;5.40;2.50;;;;;;;11.11;100.00;99980.22;6215299;23;20024;-84
2023/10/22 03:29:25;;;;;;;7.10;2.70;;;;;;;11.05;100.00;99978.09;6214904;23;20000;-83
2023/10/22 03:31:50;;;;;;;5.90;2.17;;;;;;;10.98;100.00;99973.53;6214987;23;20020;-79
2023/10/22 03:34:16;;;;;;;11.73;2.60;;;;;;;11.10;100.00;99998.41;6214828;23;20019;-81
2023/10/22 03:36:41;;;;;;;4.95;2.78;;;;;;;11.10;100.00;100001.00;6214690;23;20021;-77
2023/10/22 03:39:07;;;;;;;8.77;3.08;;;;;;;11.15;100.00;100022.97;6215014;23;20009;-80
2023/10/22 03:41:33;;;;;;;6.30;2.95;;;;;;;11.13;100.00;100017.09;6215307;23;20000;-82
2023/10/22 03:43:59;;;;;;;7.18;3.38;;;;;;;11.06;100.00;100026.25;6215056;23;20453;-80
2023/10/22 03:46:24;;;;;;;5.97;3.10;;;;;;;11.07;100.00;100043.41;6214639;23;20005;-83
2023/10/22 03:48:50;;;;;;;8.45;3.45;;;;;;;11.07;100.00;100050.31;6212171;23;20496;-86
2023/10/22 03:51:15;;;;;;;6.93;3.90;;;;;;;10.88;100.00;100017.34;6215049;23;20011;-88
2023/10/22 03:53:41;;;;;;;6.18;3.78;;;;;;;10.99;100.00;100040.56;6215294;23;20009;-82
2023/10/22 03:56:07;;;;;;;8.52;4.30;;;;;;;11.03;100.00;100062.66;6214937;23;20448;-86
2023/10/22 03:58:32;;;;;;;7.85;4.30;;;;;;;10.99;100.00;100063.00;6215017;23;20153;-83
2023/10/22 04:00:58;;;;;;;7.00;4.20;;;;;;;10.96;100.00;100078.75;6215218;23;20005;-88
2023/10/22 04:03:23;;;;;;;8.38;4.15;;;;;;;10.95;100.00;100084.84;6215927;23;20407;-88
2023/10/22 04:05:58;;;;;;;8.07;4.38;;;;;;;10.91;100.00;100076.50;6217262;23;20005;-88
2023/10/22 04:08:25;;;;;;;9.77;4.85;;;;;;;10.94;100.00;100094.38;6218280;23;20005;-86
2023/10/22 04:10:51;;;;;;;9.32;5.15;;;;;;;10.84;100.00;100077.94;6221191;23;20088;-87
2023/10/22 04:13:16;;;;;;;8.23;5.10;;;;;;;10.96;100.00;100099.41;6218173;23;20020;-87
2023/10/22 04:15:45;;;;;;;9.55;5.30;;;;;;;10.84;100.00;100083.09;6217123;23;20517;-88
2023/10/22 04:18:12;;;;;;;10.85;5.20;;;;;;;10.87;100.00;100093.19;6217491;23;20329;-85
2023/10/22 04:20:38;;;;;;;11.60;6.35;;;;;;;10.90;100.00;100103.28;6214366;23;20008;-82
2023/10/22 04:23:03;;;;;;;8.95;5.53;;;;;;;10.94;100.00;100125.38;6216844;23;20307;-88
2023/10/22 04:25:29;;;;;;;9.45;5.35;;;;;;;10.89;100.00;100117.13;6217495;23;20354;-87
2023/10/22 04:27:55;;;;;;;9.05;5.70;;;;;;;10.85;100.00;100120.91;6216954;23;20036;-88
2023/10/22 04:30:20;;;;;;;9.23;6.40;;;;;;;10.92;100.00;100132.41;6216827;23;20008;-86
2023/10/22 04:32:46;;;;;;;10.98;5.90;;;;;;;10.88;100.00;100131.81;6216664;23;20005;-88
2023/10/22 04:35:11;;;;;;;9.77;6.10;;;;;;;10.90;100.00;100139.44;6216719;23;20051;-88
2023/10/22 04:37:36;;;;;;;13.07;6.20;;;;;;;10.74;100.00;100123.47;6217218;23;20027;-86
2023/10/22 04:40:03;;;;;;;12.05;6.47;;;;;;;10.88;100.00;100147.31;6217061;23;20025;-88
2023/10/22 04:42:28;;;;;;;9.93;6.55;;;;;;;10.88;100.00;100149.06;6216857;23;20504;-88
2023/10/22 04:44:53;;;;;;;12.13;6.47;;;;;;;10.84;100.00;100150.25;6217071;23;20004;-83
2023/10/22 04:47:19;;;;;;;10.75;7.05;;;;;;;10.82;100.00;100152.13;6216463;23;20012;-86
2023/10/22 04:49:47;;;;;;;11.60;6.70;;;;;;;10.76;100.00;100155.97;6216708;23;20327;-88
2023/10/22 04:52:21;;;;;;;9.48;6.00;;;;;;;10.43;100.00;100115.41;6213669;23;20004;-87
2023/10/22 04:54:46;;;;;;;10.35;6.47;;;;;;;10.63;100.00;100168.97;6216408;23;20011;-86
2023/10/22 04:57:12;;;;;;;10.20;6.50;;;;;;;10.53;100.00;100175.75;6216473;23;20431;-87
2023/10/22 04:59:37;;;;;;;10.77;5.82;;;;;;;10.49;100.00;100181.25;6216763;23;20013;-85
2023/10/22 05:02:02;;;;;;;11.13;6.32;;;;;;;10.46;100.00;100181.47;6216844;23;20482;-85
2023/10/22 05:04:28;;;;;;;10.23;5.75;;;;;;;10.44;100.00;100189.34;6217006;23;20011;-85
2023/10/22 05:06:55;;;;;;;10.45;6.03;;;;;;;10.43;100.00;100186.88;6216669;23;20005;-87
2023/10/22 05:09:20;;;;;;;9.35;6.15;;;;;;;10.32;100.00;100179.88;6216104;23;20379;-85
2023/10/22 05:11:45;;;;;;;10.00;5.72;;;;;;;10.18;100.00;100165.38;6216773;23;20007;-87
2023/10/22 05:14:11;;;;;;;11.82;5.43;;;;;;;10.27;100.00;100197.47;6216374;23;20070;-87
2023/10/22 05:16:36;;;;;;;10.75;5.85;;;;;;;10.12;100.00;100196.75;6216125;23;20078;-80
2023/10/22 05:19:01;;;;;;;9.77;5.60;;;;;;;10.12;100.00;100209.66;6216346;23;20016;-87
2023/10/22 05:21:27;;;;;;;8.48;4.80;;;;;;;10.03;100.00;100216.31;6216128;23;20015;-77
2023/10/22 05:23:52;;;;;;;9.10;5.20;;;;;;;9.96;100.00;100220.25;6215821;23;20008;-79
2023/10/22 05:26:17;;;;;;;10.63;4.97;;;;;;;9.89;100.00;100223.34;6216122;23;20007;-77
2023/10/22 05:28:43;;;;;;;9.93;4.88;;;;;;;9.83;100.00;100229.75;6216108;23;20012;-77
2023/10/22 05:31:17;;;;;;;8.27;4.28;;;;;;;9.76;100.00;100225.97;6216178;23;20336;-79
2023/10/22 05:33:43;;;;;;;9.02;4.80;;;;;;;9.59;100.00;100216.81;6215892;23;20036;-85
2023/10/22 05:36:19;;;;;;;8.60;4.57;;;;;;;9.65;100.00;100249.09;6216362;23;20008;-86
2023/10/22 05:38:45;;;;;;;7.90;4.28;;;;;;;9.45;100.00;100232.41;6216186;23;20606;-77
2023/10/22 05:41:21;;;;;;;9.35;4.57;;;;;;;9.52;100.00;100250.81;6215985;23;20009;-77
2023/10/22 05:43:47;;;;;;;8.73;4.13;;;;;;;9.40;100.00;100242.19;6215913;23;20001;-77
2023/10/22 05:46:12;;;;;;;8.18;4.05;;;;;;;9.37;100.00;100243.22;6215814;23;20054;-80
2023/10/22 05:48:38;;;;;;;8.57;4.28;;;;;;;9.14;100.00;100215.56;6215838;23;20036;-87
2023/10/22 05:51:03;;;;;;;7.82;4.07;;;;;;;9.34;100.00;100258.88;6216043;23;20000;-80
2023/10/22 05:53:28;;;;;;;8.18;4.07;;;;;;;9.28;100.00;100272.16;6213279;23;20015;-78
2023/10/22 05:55:57;;;;;;;8.82;4.43;;;;;;;9.26;100.00;100275.78;6215967;23;20015;-86
2023/10/22 05:58:26;;;;;;;9.88;4.47;;;;;;;9.18;100.00;100271.13;6215783;23;20001;-82
2023/10/22 06:00:52;;;;;;;7.82;4.07;;;;;;;9.16;100.00;100291.03;6216077;23;20323;-87
2023/10/22 06:03:18;;;;;;;8.30;4.45;;;;;;;9.10;100.00;100281.94;6215879;23;20032;-86
2023/10/22 06:05:44;;;;;;;8.88;4.30;;;;;;;9.11;100.00;100291.31;6216014;23;20001;-82
2023/10/22 06:08:10;;;;;;;8.38;4.05;;;;;;;9.07;100.00;100294.19;6215840;23;20066;-79
2023/10/22 06:10:47;;;;;;;7.47;4.50;;;;;;;9.05;100.00;100301.19;6216260;23;20001;-86
2023/10/22 06:13:13;;;;;;;8.18;4.30;;;;;;;9.02;100.00;100299.63;6215739;23;20034;-86
2023/10/22 06:15:40;;;;;;;8.57;3.83;;;;;;;8.98;100.00;100305.09;6215920;23;20007;-85
2023/10/22 06:18:06;;;;;;;9.15;4.80;;;;;;;9.01;100.00;100318.59;6216098;23;20059;-85
2023/10/22 06:20:32;;;;;;;8.27;4.70;;;;;;;8.98;100.00;100321.38;6189186;23;20008;-86
2023/10/22 06:22:57;;;;;;;8.63;4.20;;;;;;;8.99;100.00;100329.91;6215728;23;20011;-82
2023/10/22 06:25:23;;;;;;;6.22;3.90;;;;;;;8.89;100.00;100309.06;6215028;23;20001;-82
2023/10/22 06:27:49;;;;;;;8.07;4.18;;;;;;;9.02;100.00;100334.84;6215661;23;20050;-80
2023/10/22 06:30:14;;;;;;;6.95;4.00;;;;;;;8.97;100.00;100340.31;6215686;23;20027;-86
2023/10/22 06:32:40;;;;;;;6.63;3.35;;;;;;;8.97;100.00;100342.06;6215925;23;20047;-87
2023/10/22 06:35:07;;;;;;;10.18;3.90;;;;;;;8.89;100.00;100334.81;6215324;23;20317;-86
2023/10/22 06:37:32;;;;;;;12.40;4.20;;;;;;;8.99;100.00;100358.25;6215932;23;20311;-85
2023/10/22 06:39:58;;;;;;;8.90;3.90;;;;;;;9.02;100.00;100364.00;6215511;23;20011;-82
2023/10/22 06:42:26;;;;;;;9.68;3.75;;;;;;;9.01;100.00;100372.66;6216114;23;20000;-86
2023/10/22 06:44:51;;;;;;;8.85;3.90;;;;;;;9.03;100.00;100381.13;6215509;23;20015;-83
2023/10/22 06:47:17;;;;;;;7.05;3.67;;;;;;;9.09;100.00;100385.06;6215105;23;20012;-83
2023/10/22 06:49:51;;;;;;;9.43;4.22;;;;;;;9.04;100.00;100369.06;6216457;23;20011;-85
2023/10/22 06:52:18;;;;;;;9.48;4.45;;;;;;;9.20;100.00;100380.03;6191289;23;20032;-84
2023/10/22 06:54:44;;;;;;;7.57;3.92;;;;;;;9.23;100.00;100385.00;6215423;23;20005;-86
2023/10/22 06:57:09;;;;;;;7.90;3.50;;;;;;;9.23;100.00;100379.84;6215658;23;20015;-85
2023/10/22 06:59:34;;;;;;;8.20;3.88;;;;;;;9.21;100.00;100384.28;6215431;23;20308;-84
2023/10/22 07:02:00;;;;;;;7.72;3.60;;;;;;;9.28;100.00;100401.00;6219231;23;20008;-81
2023/10/22 07:04:25;;;;;;;7.88;3.70;;;;;;;9.26;100.00;100408.00;6216980;23;20007;-83
2023/10/22 07:06:51;;;;;;;8.30;3.38;;;;;;;9.23;100.00;100410.75;6215466;23;20023;-87
2023/10/22 07:09:16;;;;;;;6.88;3.40;;;;;;;9.20;100.00;100419.50;6214970;23;20485;-81
2023/10/22 07:11:43;;;;;;;7.22;3.47;;;;;;;9.18;100.00;100421.38;6215452;23;20419;-80
2023/10/22 07:14:29;;;;;;;5.63;3.40;;;;;;;9.05;100.00;100410.19;6188373;23;20001;-91
2023/10/22 07:17:00;;;;;;;5.90;3.33;;;;;;;9.15;100.00;100428.47;6214416;23;20035;-91
2023/10/22 07:19:25;;;;;;;6.22;3.13;;;;;;;8.10;100.00;100263.41;6215904;23;20386;-88
2023/10/22 07:21:51;;;;;;;6.70;3.88;;;;;;;9.13;100.00;100430.28;6188475;23;20094;-87
2023/10/22 07:24:16;;;;;;;10.77;3.85;;;;;;;8.62;100.00;100352.84;6188565;23;20449;-88
2023/10/22 07:26:45;;;;;;;8.95;3.85;;;;;;;8.80;100.00;100385.16;6215164;23;20055;-90
2023/10/22 07:29:12;;;;;;;8.15;3.88;;;;;;;7.95;100.00;100249.75;6215235;23;20008;-90
2023/10/22 07:31:37;;;;;;;7.20;4.00;;;;;;;8.55;100.00;100341.25;6184207;23;20012;-90
2023/10/22 07:34:03;;;;;;;7.95;3.70;;;;;;;8.55;100.00;100338.69;6215029;23;20048;-90
2023/10/22 07:36:28;;;;;;;6.00;3.67;;;;;;;8.69;100.00;100366.97;6213719;23;20035;-89
2023/10/22 07:38:54;;;;;;;7.35;3.70;;;;;;;8.80;100.00;100359.41;6214952;23;20011;-88
2023/10/22 07:41:23;;;;;;;5.55;3.20;;;;;;;8.95;100.00;100344.75;6214972;23;20000;-86
2023/10/22 07:43:55;;;;;;;6.63;3.10;;;;;;;10.03;100.00;100476.84;6214956;23;20012;-87
2023/10/22 07:46:20;;;;;;;7.53;3.25;;;;;;;9.85;100.00;100408.44;6214861;23;20004;-89
2023/10/22 07:48:45;;;;;;;5.35;3.33;;;;;;;9.99;100.00;100381.69;6214909;23;20009;-89
2023/10/22 07:51:11;;;;;;;6.78;3.10;;;;;;;10.87;100.00;100480.66;6215213;23;20079;-86
2023/10/22 07:53:37;;;;;;;5.43;2.70;;;;;;;10.53;100.00;100392.63;6213867;23;20008;-85
2023/10/22 07:56:04;;;;;;;6.03;2.85;;;;;;;11.26;100.00;100478.78;6214562;23;20028;-87
2023/10/22 07:58:30;;;;;;;8.27;3.08;;;;;;;11.40;100.00;100483.75;6215020;23;20023;-88
2023/10/22 08:00:55;;;;;;;5.88;2.38;;;;;;;11.53;100.00;100486.31;6215760;23;20005;-74
2023/10/22 08:03:20;;;;;;;5.07;2.45;;;;;;;11.63;100.00;100501.06;6214861;23;20054;-82
2023/10/22 08:05:46;;;;;;;4.60;2.70;;;;;;;11.67;100.00;100494.72;6214921;23;20005;-85
2023/10/22 08:08:11;;;;;;;7.43;2.40;;;;;;;11.73;100.00;100498.63;6214542;23;20075;-88
2023/10/22 08:10:37;;;;;;;8.90;3.00;;;;;;;11.60;100.00;100485.75;6214492;23;20065;-82
2023/10/22 08:13:02;;;;;;;5.85;2.50;;;;;;;11.70;100.00;100510.03;6214438;23;20036;-90
2023/10/22 08:15:27;;;;;;;6.70;2.80;;;;;;;11.69;100.00;100512.69;6214867;23;20482;-88
2023/10/22 08:17:52;;;;;;;6.10;2.80;;;;;;;11.73;100.00;100504.63;6214892;23;20304;-78
2023/10/22 08:20:18;;;;;;;7.30;2.83;;;;;;;11.69;100.00;100494.59;6214874;23;20445;-77
2023/10/22 08:22:43;;;;;;;5.78;2.40;;;;;;;11.59;100.00;100478.91;6214755;23;20410;-77
2023/10/22 08:25:08;;;;;;;7.82;2.92;;;;;;;11.77;100.00;100506.03;6214951;23;20359;-78
2023/10/22 08:27:34;;;;;;;6.78;2.15;;;;;;;11.92;100.00;100524.81;6214419;23;20004;-86
2023/10/22 08:29:59;;;;;;;5.70;2.47;;;;;;;11.88;100.00;100496.69;6214821;23;20009;-77
2023/10/22 08:32:25;;;;;;;7.13;3.15;;;;;;;12.07;100.00;100525.44;6214678;23;20008;-83
2023/10/22 08:34:50;;;;;;;8.02;3.00;;;;;;;12.11;100.00;100519.13;6214571;23;20008;-80
2023/10/22 08:37:16;;;;;;;6.00;2.70;;;;;;;12.09;100.00;100518.38;6214703;23;20015;-80
2023/10/22 08:39:41;;;;;;;8.68;3.20;;;;;;;12.07;100.00;100512.50;6214661;23;20331;-90
2023/10/22 08:42:11;;;;;;;6.93;2.90;;;;;;;12.23;100.00;100544.09;6213644;23;20016;-78
2023/10/22 08:44:46;;;;;;;6.38;2.50;;;;;;;12.04;100.00;100510.16;6215399;23;20066;-82
2023/10/22 08:47:11;;;;;;;9.15;2.58;;;;;;;12.21;100.00;100521.84;6215215;23;20004;-87
2023/10/22 08:49:40;;;;;;;5.53;2.67;;;;;;;12.38;100.00;100542.09;6215634;23;20154;-81
2023/10/22 08:52:08;;;;;;;6.28;2.50;;;;;;;12.34;100.00;100527.75;6216526;23;20004;-83
2023/10/22 08:54:33;;;;;;;5.75;2.85;;;;;;;12.50;100.00;100542.97;6216380;23;20004;-81
2023/10/22 08:56:59;;;;;;;6.80;2.88;;;;;;;12.64;100.00;100553.09;6216075;23;20014;-82
2023/10/22 08:59:24;;;;;;;6.90;3.20;;;;;;;12.75;100.00;100562.66;6216474;23;20008;-89
2023/10/22 09:01:50;;;;;;;7.50;2.67;;;;;;;12.70;100.00;100550.06;6219143;23;20362;-88
2023/10/22 09:04:17;;;;;;;7.50;2.83;;;;;;;12.87;100.00;100566.88;6218917;23;20071;-90
2023/10/22 09:06:42;;;;;;;5.82;2.40;;;;;;;12.92;100.00;100569.97;6219145;23;20454;-89
2023/10/22 09:09:08;;;;;;;4.65;2.40;;;;;;;12.92;100.00;100568.19;6218002;23;20004;-89
2023/10/22 09:11:36;;;;;;;4.40;2.47;;;;;;;12.86;100.00;100553.09;6218675;23;20001;-90
2023/10/22 09:14:20;;;;;;;5.63;2.30;;;;;;;13.00;100.00;100575.38;6219419;23;20000;-94
2023/10/22 09:16:45;;;;;;;5.10;2.60;;;;;;;12.83;100.00;100565.47;6222253;23;20004;-91
2023/10/22 09:19:11;;;;;;;4.55;2.20;;;;;;;12.75;100.00;100549.69;6221040;23;20010;-86
2023/10/22 09:21:43;;;;;;;4.40;2.30;;;;;;;12.86;100.00;100573.84;6217082;23;20008;-91
2023/10/22 09:24:09;;;;;;;5.90;2.85;;;;;;;12.93;100.00;100582.81;6217198;23;20008;-84
2023/10/22 09:26:47;;;;;;;5.90;2.42;;;;;;;12.87;100.00;100580.66;6218086;23;20004;-83
2023/10/22 09:29:13;;;;;;;8.10;2.55;;;;;;;12.95;100.00;100584.44;6216762;23;20008;-91
2023/10/22 09:31:48;;;;;;;7.43;2.60;;;;;;;13.12;100.00;100596.94;6217118;23;20001;-89
2023/10/22 09:34:25;;;;;;;6.60;2.63;;;;;;;12.97;100.00;100565.25;6217710;23;20024;-90
2023/10/22 09:36:52;;;;;;;5.63;2.60;;;;;;;13.32;100.00;100603.22;6217998;23;20001;-85
2023/10/22 09:39:40;;;;;;;6.28;3.00;;;;;;;13.51;100.00;100605.19;6216167;23;20012;-86
2023/10/22 09:42:09;;;;;;;6.43;2.75;;;;;;;13.58;100.00;100603.78;6216652;23;20004;-83
2023/10/22 09:44:37;;;;;;;7.32;2.65;;;;;;;13.62;100.00;100613.78;6217002;23;20450;-81
2023/10/22 09:47:06;;;;;;;7.68;3.08;;;;;;;13.60;100.00;100615.66;6216321;23;20007;-87
2023/10/22 09:49:33;;;;;;;9.55;3.47;;;;;;;13.62;100.00;100615.53;6215745;23;20009;-90
2023/10/22 09:52:06;;;;;;;6.18;3.10;;;;;;;13.65;100.00;100625.66;6189826;23;20342;-82
2023/10/22 09:54:39;;;;;;;6.28;3.42;;;;;;;13.59;100.00;100624.41;6219557;23;20453;-87
2023/10/22 09:57:08;;;;;;;5.68;2.97;;;;;;;13.51;100.00;100636.31;6220038;23;20004;-80
2023/10/22 09:59:34;;;;;;;7.40;3.28;;;;;;;13.40;100.00;100650.94;6216584;23;20005;-87
2023/10/22 10:02:00;;;;;;;6.38;3.45;;;;;;;13.27;100.00;100650.22;6189155;23;20031;-85
2023/10/22 10:04:26;;;;;;;7.70;3.67;;;;;;;13.19;100.00;100645.66;6216456;23;20005;-89
2023/10/22 10:06:53;;;;;;;6.32;3.50;;;;;;;13.16;100.00;100621.69;6216668;23;20418;-83
2023/10/22 10:09:21;;;;;;;7.35;3.72;;;;;;;13.31;100.00;100637.88;6215985;23;20008;-83
2023/10/22 10:11:47;;;;;;;7.32;3.88;;;;;;;13.35;100.00;100644.47;6215413;23;20009;-87
2023/10/22 10:14:46;;;;;;;7.10;4.88;;;;;;;13.43;100.00;100647.28;6216089;23;20005;-87
2023/10/22 10:17:14;;;;;;;6.82;3.83;;;;;;;13.49;100.00;100639.03;6216213;23;20007;-90
2023/10/22 10:19:40;;;;;;;8.63;4.38;;;;;;;13.64;100.00;100639.59;6216843;23;20066;-87
2023/10/22 10:22:07;;;;;;;6.88;4.25;;;;;;;13.70;100.00;100629.56;6217422;23;20075;-84
2023/10/22 10:24:33;;;;;;;8.70;4.18;;;;;;;13.92;100.00;100635.63;6216155;23;20058;-92
2023/10/22 10:26:58;;;;;;;9.25;5.00;;;;;;;14.01;100.00;100646.09;6215817;23;20092;-85
2023/10/22 10:29:27;;;;;;;8.65;4.57;;;;;;;13.85;100.00;100630.09;6216268;23;20001;-90
2023/10/22 10:31:54;;;;;;;7.05;4.47;;;;;;;13.98;100.00;100656.75;6216481;23;20000;-87
2023/10/22 10:34:31;;;;;;;5.78;4.28;;;;;;;14.02;100.00;100658.13;6215377;23;20012;-88
2023/10/22 10:36:57;;;;;;;7.88;4.28;;;;;;;14.10;100.00;100664.50;6216036;23;20024;-89
2023/10/22 10:39:42;;;;;;;5.85;3.90;;;;;;;14.08;100.00;100656.84;6215922;23;20025;-89
2023/10/22 10:42:12;;;;;;;7.63;3.90;;;;;;;14.02;100.00;100660.75;6212745;23;20390;-89
2023/10/22 10:44:55;;;;;;;5.97;4.38;;;;;;;14.13;100.00;100672.84;6215959;23;20039;-88
2023/10/22 10:47:21;;;;;;;6.40;3.80;;;;;;;14.05;100.00;100670.88;6215515;23;20005;-85
2023/10/22 10:50:05;;;;;;;7.90;4.25;;;;;;;13.82;100.00;100639.91;6215537;23;20008;-86
2023/10/22 10:52:34;;;;;;;5.28;3.75;;;;;;;13.84;100.00;100669.16;6215500;23;20008;-91
2023/10/22 10:55:15;;;;;;;7.65;3.80;;;;;;;13.73;100.00;100657.03;6215349;23;20008;-87
2023/10/22 10:57:44;;;;;;;8.00;4.35;;;;;;;13.71;100.00;100664.13;6215213;23;20008;-83
2023/10/22 11:00:19;;;;;;;7.05;4.10;;;;;;;13.68;100.00;100666.97;6189277;23;20012;-86
2023/10/22 11:02:46;;;;;;;8.27;4.28;;;;;;;13.59;100.00;100663.31;6214412;23;20335;-86
2023/10/22 11:05:13;;;;;;;7.38;4.00;;;;;;;13.68;100.00;100677.34;6216356;23;20005;-87
2023/10/22 11:07:39;;;;;;;8.00;3.75;;;;;;;13.60;100.00;100667.56;6215679;23;20012;-89
2023/10/22 11:10:16;;;;;;;6.57;4.05;;;;;;;13.72;100.00;100678.75;6215953;23;20001;-79
2023/10/22 11:12:42;;;;;;;6.40;4.40;;;;;;;13.71;100.00;100683.09;6214974;23;20001;-89
2023/10/22 11:15:09;;;;;;;7.10;4.40;;;;;;;13.64;100.00;100683.69;6215177;23;20012;-90
2023/10/22 11:17:40;;;;;;;5.75;4.03;;;;;;;13.61;100.00;100670.97;6189118;23;20426;-83
2023/10/22 11:20:06;;;;;;;6.15;3.65;;;;;;;13.75;100.00;100684.50;6215523;23;20004;-81